sensor_id;sensor_type;location;lat;lon;timestamp;pressure;altitude;pressure_sealevel;temperature;humidity
64453;BME280;50813;52.654;6.766;2023-05-02T00:00:55;101781.0;;;12.11;100.0
64453;BME280;50813;52.654;6.766;2023-05-02T00:02:31;101777.0;;;12.21;100.0
64453;BME280;50813;52.654;6.766;2023-05-02T00:04:08;101774.0;;;12.14;100.0
64453;BME280;50813;52.654;6.766;2023-05-02T00:07:20;101777.0;;;12.25;100.0
64453;BME280;50813;52.654;6.766;2023-05-02T00:08:57;101774.0;;;12.37;100.0
64453;BME280;50813;52.654;6.766;2023-05-02T00:10:33;101773.0;;;12.32;100.0
64453;BME280;50813;52.654;6.766;2023-05-02T00:13:45;101773.0;;;12.4;100.0
64453;BME280;50813;52.654;6.766;2023-05-02T00:15:21;101777.0;;;12.36;100.0
64453;BME280;50813;52.654;6.766;2023-05-02T00:16:57;101780.0;;;12.36;100.0
64453;BME280;50813;52.654;6.766;2023-05-02T00:20:11;101780.0;;;12.33;100.0
64453;BME280;50813;52.654;6.766;2023-05-02T00:21:47;101780.0;;;12.41;100.0
64453;BME280;50813;52.654;6.766;2023-05-02T00:23:23;101781.0;;;12.41;100.0
64453;BME280;50813;52.654;6.766;2023-05-02T00:25:00;101781.0;;;12.25;100.0
64453;BME280;50813;52.654;6.766;2023-05-02T00:28:13;101781.0;;;12.4;100.0
64453;BME280;50813;52.654;6.766;2023-05-02T00:29:49;101784.0;;;12.25;100.0
64453;BME280;50813;52.654;6.766;2023-05-02T00:31:25;101785.0;;;12.34;100.0
64453;BME280;50813;52.654;6.766;2023-05-02T00:34:37;101790.0;;;12.49;100.0
64453;BME280;50813;52.654;6.766;2023-05-02T00:36:14;101790.0;;;12.37;100.0
64453;BME280;50813;52.654;6.766;2023-05-02T00:37:51;101790.0;;;12.37;100.0
64453;BME280;50813;52.654;6.766;2023-05-02T00:41:03;101795.0;;;12.2;100.0
64453;BME280;50813;52.654;6.766;2023-05-02T00:42:39;101794.0;;;12.24;100.0
64453;BME280;50813;52.654;6.766;2023-05-02T00:44:15;101795.0;;;12.42;100.0
64453;BME280;50813;52.654;6.766;2023-05-02T00:45:51;101794.0;;;12.45;100.0
64453;BME280;50813;52.654;6.766;2023-05-02T00:49:04;101798.0;;;12.32;100.0
64453;BME280;50813;52.654;6.766;2023-05-02T00:50:41;101796.0;;;12.3;100.0
64453;BME280;50813;52.654;6.766;2023-05-02T00:52:18;101800.0;;;12.3;100.0
64453;BME280;50813;52.654;6.766;2023-05-02T00:55:31;101805.0;;;12.29;100.0
64453;BME280;50813;52.654;6.766;2023-05-02T00:57:07;101811.0;;;12.05;100.0
64453;BME280;50813;52.654;6.766;2023-05-02T00:58:44;101814.0;;;12.2;100.0
64453;BME280;50813;52.654;6.766;2023-05-02T01:02:15;101816.0;;;12.05;100.0
64453;BME280;50813;52.654;6.766;2023-05-02T01:04:12;101816.0;;;11.97;100.0
64453;BME280;50813;52.654;6.766;2023-05-02T01:06:02;101819.0;;;12.03;100.0
64453;BME280;50813;52.654;6.766;2023-05-02T01:08:07;101818.0;;;11.83;100.0
64453;BME280;50813;52.654;6.766;2023-05-02T01:09:53;101820.0;;;11.9;100.0
64453;BME280;50813;52.654;6.766;2023-05-02T01:11:43;101822.0;;;11.82;100.0
64453;BME280;50813;52.654;6.766;2023-05-02T01:13:32;101818.0;;;11.65;100.0
64453;BME280;50813;52.654;6.766;2023-05-02T01:15:13;101824.0;;;11.66;100.0
64453;BME280;50813;52.654;6.766;2023-05-02T01:18:31;101822.0;;;11.71;100.0
64453;BME280;50813;52.654;6.766;2023-05-02T01:20:13;101826.0;;;11.6;100.0
64453;BME280;50813;52.654;6.766;2023-05-02T01:21:52;101823.0;;;11.63;100.0
64453;BME280;50813;52.654;6.766;2023-05-02T01:23:37;101823.0;;;11.53;100.0
64453;BME280;50813;52.654;6.766;2023-05-02T01:27:13;101825.0;;;11.37;100.0
64453;BME280;50813;52.654;6.766;2023-05-02T01:28:57;101821.0;;;11.3;100.0
64453;BME280;50813;52.654;6.766;2023-05-02T01:30:35;101822.0;;;11.24;100.0
64453;BME280;50813;52.654;6.766;2023-05-02T01:32:14;101823.0;;;11.35;100.0
64453;BME280;50813;52.654;6.766;2023-05-02T01:35:29;101825.0;;;11.29;100.0
64453;BME280;50813;52.654;6.766;2023-05-02T01:37:07;101834.0;;;11.23;100.0
64453;BME280;50813;52.654;6.766;2023-05-02T01:38:48;101839.0;;;11.09;100.0
64453;BME280;50813;52.654;6.766;2023-05-02T01:40:26;101844.0;;;11.04;100.0
64453;BME280;50813;52.654;6.766;2023-05-02T01:43:41;101851.0;;;11.08;100.0
64453;BME280;50813;52.654;6.766;2023-05-02T01:45:18;101855.0;;;10.93;100.0
64453;BME280;50813;52.654;6.766;2023-05-02T01:46:56;101855.0;;;10.94;100.0
64453;BME280;50813;52.654;6.766;2023-05-02T01:48:35;101855.0;;;11.03;100.0
64453;BME280;50813;52.654;6.766;2023-05-02T01:51:53;101859.0;;;10.84;100.0
64453;BME280;50813;52.654;6.766;2023-05-02T01:53:32;101858.0;;;10.89;100.0
64453;BME280;50813;52.654;6.766;2023-05-02T01:55:12;101862.0;;;10.92;100.0
64453;BME280;50813;52.654;6.766;2023-05-02T01:58:28;101864.0;;;10.9;100.0
64453;BME280;50813;52.654;6.766;2023-05-02T02:00:08;101865.0;;;10.98;100.0
64453;BME280;50813;52.654;6.766;2023-05-02T02:01:47;101872.0;;;10.89;100.0
64453;BME280;50813;52.654;6.766;2023-05-02T02:03:25;101876.0;;;10.91;100.0
64453;BME280;50813;52.654;6.766;2023-05-02T02:06:45;101872.0;;;11.07;100.0
64453;BME280;50813;52.654;6.766;2023-05-02T02:08:34;101873.0;;;11.22;100.0
64453;BME280;50813;52.654;6.766;2023-05-02T02:10:10;101877.0;;;11.3;100.0
64453;BME280;50813;52.654;6.766;2023-05-02T02:11:51;101875.0;;;11.31;100.0
64453;BME280;50813;52.654;6.766;2023-05-02T02:15:17;101875.0;;;11.25;100.0
64453;BME280;50813;52.654;6.766;2023-05-02T02:17:00;101878.0;;;11.3;100.0
64453;BME280;50813;52.654;6.766;2023-05-02T02:18:37;101880.0;;;11.14;100.0
64453;BME280;50813;52.654;6.766;2023-05-02T02:20:14;101882.0;;;11.2;100.0
64453;BME280;50813;52.654;6.766;2023-05-02T02:23:32;101886.0;;;11.2;100.0
64453;BME280;50813;52.654;6.766;2023-05-02T02:25:13;101889.0;;;11.22;100.0
64453;BME280;50813;52.654;6.766;2023-05-02T02:26:50;101894.0;;;11.23;100.0
64453;BME280;50813;52.654;6.766;2023-05-02T02:28:26;101895.0;;;11.2;100.0
64453;BME280;50813;52.654;6.766;2023-05-02T02:31:39;101897.0;;;11.08;100.0
64453;BME280;50813;52.654;6.766;2023-05-02T02:33:16;101899.0;;;11.02;100.0
64453;BME280;50813;52.654;6.766;2023-05-02T02:34:52;101898.0;;;11.08;100.0
64453;BME280;50813;52.654;6.766;2023-05-02T02:38:17;101903.0;;;10.76;100.0
64453;BME280;50813;52.654;6.766;2023-05-02T02:40:04;101899.0;;;11.1;100.0
64453;BME280;50813;52.654;6.766;2023-05-02T02:41:51;101901.0;;;11.28;99.8
64453;BME280;50813;52.654;6.766;2023-05-02T02:43:35;101905.0;;;11.28;100.0
64453;BME280;50813;52.654;6.766;2023-05-02T02:45:25;101912.0;;;11.5;99.54
64453;BME280;50813;52.654;6.766;2023-05-02T02:49:03;101914.0;;;11.28;99.31
64453;BME280;50813;52.654;6.766;2023-05-02T02:50:59;101914.0;;;11.1;99.86
64453;BME280;50813;52.654;6.766;2023-05-02T02:52:48;101918.0;;;11.04;100.0
64453;BME280;50813;52.654;6.766;2023-05-02T02:54:32;101921.0;;;11.04;100.0
64453;BME280;50813;52.654;6.766;2023-05-02T02:56:14;101921.0;;;11.03;100.0
64453;BME280;50813;52.654;6.766;2023-05-02T02:57:57;101924.0;;;11.28;99.55
64453;BME280;50813;52.654;6.766;2023-05-02T03:01:23;101932.0;;;11.19;100.0
64453;BME280;50813;52.654;6.766;2023-05-02T03:03:01;101937.0;;;11.2;100.0
64453;BME280;50813;52.654;6.766;2023-05-02T03:04:40;101938.0;;;11.0;100.0
64453;BME280;50813;52.654;6.766;2023-05-02T03:06:17;101939.0;;;11.08;100.0
64453;BME280;50813;52.654;6.766;2023-05-02T03:09:39;101945.0;;;11.12;100.0
64453;BME280;50813;52.654;6.766;2023-05-02T03:11:15;101948.0;;;11.12;100.0
64453;BME280;50813;52.654;6.766;2023-05-02T03:12:51;101955.0;;;11.21;100.0
64453;BME280;50813;52.654;6.766;2023-05-02T03:14:27;101950.0;;;11.05;100.0
64453;BME280;50813;52.654;6.766;2023-05-02T03:18:23;101957.0;;;10.81;100.0
64453;BME280;50813;52.654;6.766;2023-05-02T03:19:59;101961.0;;;10.82;100.0
64453;BME280;50813;52.654;6.766;2023-05-02T03:21:35;101962.0;;;10.87;100.0
64453;BME280;50813;52.654;6.766;2023-05-02T03:23:11;101967.0;;;10.91;100.0
64453;BME280;50813;52.654;6.766;2023-05-02T03:24:47;101975.0;;;10.95;100.0
64453;BME280;50813;52.654;6.766;2023-05-02T03:28:00;101981.0;;;10.74;100.0
64453;BME280;50813;52.654;6.766;2023-05-02T03:29:36;101990.0;;;10.53;100.0
64453;BME280;50813;52.654;6.766;2023-05-02T03:31:12;101996.0;;;10.18;100.0
64453;BME280;50813;52.654;6.766;2023-05-02T03:34:27;101994.0;;;9.91;100.0
64453;BME280;50813;52.654;6.766;2023-05-02T03:36:03;101998.0;;;9.77;100.0
64453;BME280;50813;52.654;6.766;2023-05-02T03:37:39;102008.0;;;9.74;100.0
64453;BME280;50813;52.654;6.766;2023-05-02T03:40:51;102010.0;;;9.51;100.0
64453;BME280;50813;52.654;6.766;2023-05-02T03:42:27;102016.0;;;9.48;100.0
64453;BME280;50813;52.654;6.766;2023-05-02T03:44:04;102024.0;;;9.36;100.0
64453;BME280;50813;52.654;6.766;2023-05-02T03:47:16;102030.0;;;9.3;100.0
64453;BME280;50813;52.654;6.766;2023-05-02T03:48:52;102032.0;;;9.23;100.0
64453;BME280;50813;52.654;6.766;2023-05-02T03:50:28;102039.0;;;9.28;100.0
64453;BME280;50813;52.654;6.766;2023-05-02T03:52:04;102043.0;;;9.21;100.0
64453;BME280;50813;52.654;6.766;2023-05-02T03:55:17;102045.0;;;9.09;100.0
64453;BME280;50813;52.654;6.766;2023-05-02T03:56:53;102055.0;;;8.99;100.0
64453;BME280;50813;52.654;6.766;2023-05-02T03:58:29;102052.0;;;8.96;100.0
64453;BME280;50813;52.654;6.766;2023-05-02T04:01:43;102063.0;;;8.96;100.0
64453;BME280;50813;52.654;6.766;2023-05-02T04:03:20;102062.0;;;8.9;100.0
64453;BME280;50813;52.654;6.766;2023-05-02T04:04:57;102075.0;;;8.88;100.0
64453;BME280;50813;52.654;6.766;2023-05-02T04:08:09;102073.0;;;8.9;100.0
64453;BME280;50813;52.654;6.766;2023-05-02T04:09:45;102082.0;;;8.97;100.0
64453;BME280;50813;52.654;6.766;2023-05-02T04:11:21;102084.0;;;8.84;100.0
64453;BME280;50813;52.654;6.766;2023-05-02T04:12:57;102087.0;;;8.73;100.0
64453;BME280;50813;52.654;6.766;2023-05-02T04:16:09;102096.0;;;8.77;100.0
64453;BME280;50813;52.654;6.766;2023-05-02T04:17:46;102094.0;;;8.68;99.76
64453;BME280;50813;52.654;6.766;2023-05-02T04:19:22;102096.0;;;8.64;99.07
64453;BME280;50813;52.654;6.766;2023-05-02T04:22:34;102097.0;;;8.6;98.93
64453;BME280;50813;52.654;6.766;2023-05-02T04:24:11;102103.0;;;8.59;98.52
64453;BME280;50813;52.654;6.766;2023-05-02T04:25:51;102103.0;;;8.53;98.39
64453;BME280;50813;52.654;6.766;2023-05-02T04:29:04;102108.0;;;8.52;96.79
64453;BME280;50813;52.654;6.766;2023-05-02T04:30:40;102114.0;;;8.73;96.78
64453;BME280;50813;52.654;6.766;2023-05-02T04:32:16;102115.0;;;8.59;96.08
64453;BME280;50813;52.654;6.766;2023-05-02T04:33:52;102120.0;;;8.55;96.42
64453;BME280;50813;52.654;6.766;2023-05-02T04:37:05;102126.0;;;8.61;96.4
64453;BME280;50813;52.654;6.766;2023-05-02T04:38:41;102137.0;;;8.53;97.35
64453;BME280;50813;52.654;6.766;2023-05-02T04:40:17;102132.0;;;8.6;97.08
64453;BME280;50813;52.654;6.766;2023-05-02T04:43:29;102133.0;;;8.58;96.36
64453;BME280;50813;52.654;6.766;2023-05-02T04:45:06;102145.0;;;8.55;96.76
64453;BME280;50813;52.654;6.766;2023-05-02T04:46:43;102149.0;;;8.68;96.3
64453;BME280;50813;52.654;6.766;2023-05-02T04:49:55;102153.0;;;8.69;95.85
64453;BME280;50813;52.654;6.766;2023-05-02T04:51:31;102156.0;;;8.59;95.85
64453;BME280;50813;52.654;6.766;2023-05-02T04:53:07;102159.0;;;8.55;94.58
64453;BME280;50813;52.654;6.766;2023-05-02T04:56:20;102158.0;;;8.58;95.78
64453;BME280;50813;52.654;6.766;2023-05-02T04:57:56;102165.0;;;8.67;93.73
64453;BME280;50813;52.654;6.766;2023-05-02T04:59:33;102166.0;;;8.84;93.14
64453;BME280;50813;52.654;6.766;2023-05-02T05:01:12;102171.0;;;8.69;92.77
64453;BME280;50813;52.654;6.766;2023-05-02T05:04:24;102174.0;;;8.48;90.98
64453;BME280;50813;52.654;6.766;2023-05-02T05:06:00;102171.0;;;8.49;89.22
64453;BME280;50813;52.654;6.766;2023-05-02T05:07:37;102182.0;;;8.43;90.15
64453;BME280;50813;52.654;6.766;2023-05-02T05:10:50;102182.0;;;8.41;89.54
64453;BME280;50813;52.654;6.766;2023-05-02T05:12:26;102184.0;;;8.4;87.91
64453;BME280;50813;52.654;6.766;2023-05-02T05:14:02;102185.0;;;8.47;87.35
64453;BME280;50813;52.654;6.766;2023-05-02T05:17:15;102192.0;;;8.43;86.08
64453;BME280;50813;52.654;6.766;2023-05-02T05:18:52;102196.0;;;8.48;86.76
64453;BME280;50813;52.654;6.766;2023-05-02T05:20:28;102200.0;;;8.48;85.22
64453;BME280;50813;52.654;6.766;2023-05-02T05:22:04;102206.0;;;8.45;85.62
64453;BME280;50813;52.654;6.766;2023-05-02T05:25:17;102212.0;;;8.5;84.8
64453;BME280;50813;52.654;6.766;2023-05-02T05:26:53;102216.0;;;8.56;85.02
64453;BME280;50813;52.654;6.766;2023-05-02T05:28:29;102216.0;;;8.61;83.77
64453;BME280;50813;52.654;6.766;2023-05-02T05:31:42;102221.0;;;8.56;83.71
64453;BME280;50813;52.654;6.766;2023-05-02T05:33:18;102225.0;;;8.63;84.04
64453;BME280;50813;52.654;6.766;2023-05-02T05:34:55;102222.0;;;8.74;83.7
64453;BME280;50813;52.654;6.766;2023-05-02T05:38:07;102224.0;;;8.8;84.08
64453;BME280;50813;52.654;6.766;2023-05-02T05:39:43;102232.0;;;8.94;85.88
64453;BME280;50813;52.654;6.766;2023-05-02T05:41:21;102232.0;;;9.01;83.94
64453;BME280;50813;52.654;6.766;2023-05-02T05:42:56;102236.0;;;9.01;83.86
64453;BME280;50813;52.654;6.766;2023-05-02T05:46:09;102237.0;;;8.98;83.74
64453;BME280;50813;52.654;6.766;2023-05-02T05:47:45;102241.0;;;9.06;82.54
64453;BME280;50813;52.654;6.766;2023-05-02T05:49:21;102239.0;;;9.08;81.97
64453;BME280;50813;52.654;6.766;2023-05-02T05:52:38;102251.0;;;9.22;81.83
64453;BME280;50813;52.654;6.766;2023-05-02T05:54:15;102250.0;;;8.94;79.3
64453;BME280;50813;52.654;6.766;2023-05-02T05:55:52;102251.0;;;9.0;78.86
64453;BME280;50813;52.654;6.766;2023-05-02T05:59:04;102263.0;;;9.14;78.7
64453;BME280;50813;52.654;6.766;2023-05-02T06:00:40;102266.0;;;8.94;77.75
64453;BME280;50813;52.654;6.766;2023-05-02T06:02:17;102274.0;;;8.83;77.38
64453;BME280;50813;52.654;6.766;2023-05-02T06:03:53;102271.0;;;8.69;74.75
64453;BME280;50813;52.654;6.766;2023-05-02T06:07:06;102273.0;;;8.85;74.84
64453;BME280;50813;52.654;6.766;2023-05-02T06:08:42;102278.0;;;8.84;74.52
64453;BME280;50813;52.654;6.766;2023-05-02T06:10:18;102280.0;;;8.81;73.72
64453;BME280;50813;52.654;6.766;2023-05-02T06:13:31;102275.0;;;9.06;72.95
64453;BME280;50813;52.654;6.766;2023-05-02T06:15:07;102280.0;;;8.89;72.22
64453;BME280;50813;52.654;6.766;2023-05-02T06:16:43;102277.0;;;8.96;71.13
64453;BME280;50813;52.654;6.766;2023-05-02T06:19:56;102280.0;;;8.98;70.37
64453;BME280;50813;52.654;6.766;2023-05-02T06:21:32;102287.0;;;9.06;70.77
64453;BME280;50813;52.654;6.766;2023-05-02T06:23:08;102290.0;;;9.15;71.17
64453;BME280;50813;52.654;6.766;2023-05-02T06:24:44;102295.0;;;9.16;71.3
64453;BME280;50813;52.654;6.766;2023-05-02T06:27:56;102298.0;;;8.91;67.48
64453;BME280;50813;52.654;6.766;2023-05-02T06:29:33;102300.0;;;9.21;69.87
64453;BME280;50813;52.654;6.766;2023-05-02T06:31:09;102305.0;;;9.17;70.02
64453;BME280;50813;52.654;6.766;2023-05-02T06:34:21;102300.0;;;9.33;67.84
64453;BME280;50813;52.654;6.766;2023-05-02T06:35:58;102305.0;;;9.39;66.95
64453;BME280;50813;52.654;6.766;2023-05-02T06:37:33;102307.0;;;9.42;65.14
64453;BME280;50813;52.654;6.766;2023-05-02T06:40:46;102311.0;;;9.71;66.69
64453;BME280;50813;52.654;6.766;2023-05-02T06:42:23;102327.0;;;9.53;64.74
64453;BME280;50813;52.654;6.766;2023-05-02T06:43:59;102331.0;;;9.66;62.6
64453;BME280;50813;52.654;6.766;2023-05-02T06:47:11;102341.0;;;9.58;61.73
64453;BME280;50813;52.654;6.766;2023-05-02T06:48:47;102343.0;;;9.68;64.7
64453;BME280;50813;52.654;6.766;2023-05-02T06:50:24;102344.0;;;9.64;61.13
64453;BME280;50813;52.654;6.766;2023-05-02T06:52:00;102344.0;;;9.48;62.68
64453;BME280;50813;52.654;6.766;2023-05-02T06:55:12;102353.0;;;9.55;61.88
64453;BME280;50813;52.654;6.766;2023-05-02T06:56:48;102352.0;;;9.46;62.98
64453;BME280;50813;52.654;6.766;2023-05-02T06:58:25;102357.0;;;9.49;63.86
64453;BME280;50813;52.654;6.766;2023-05-02T07:01:37;102356.0;;;9.71;64.41
64453;BME280;50813;52.654;6.766;2023-05-02T07:03:13;102365.0;;;9.6;64.75
64453;BME280;50813;52.654;6.766;2023-05-02T07:04:49;102368.0;;;9.82;65.12
64453;BME280;50813;52.654;6.766;2023-05-02T07:08:02;102367.0;;;9.9;64.12
64453;BME280;50813;52.654;6.766;2023-05-02T07:09:39;102370.0;;;9.97;65.31
64453;BME280;50813;52.654;6.766;2023-05-02T07:11:15;102376.0;;;9.9;64.47
64453;BME280;50813;52.654;6.766;2023-05-02T07:12:51;102376.0;;;9.91;64.27
64453;BME280;50813;52.654;6.766;2023-05-02T07:16:04;102381.0;;;9.92;63.92
64453;BME280;50813;52.654;6.766;2023-05-02T07:19:19;102386.0;;;10.01;63.3
64453;BME280;50813;52.654;6.766;2023-05-02T07:22:31;102386.0;;;9.98;65.3
64453;BME280;50813;52.654;6.766;2023-05-02T07:24:07;102385.0;;;9.72;62.68
64453;BME280;50813;52.654;6.766;2023-05-02T07:25:43;102389.0;;;9.9;62.77
64453;BME280;50813;52.654;6.766;2023-05-02T07:28:56;102390.0;;;9.74;63.59
64453;BME280;50813;52.654;6.766;2023-05-02T07:30:32;102392.0;;;9.71;62.75
64453;BME280;50813;52.654;6.766;2023-05-02T07:32:08;102398.0;;;9.73;66.41
64453;BME280;50813;52.654;6.766;2023-05-02T07:33:44;102399.0;;;9.73;63.54
64453;BME280;50813;52.654;6.766;2023-05-02T07:36:57;102405.0;;;9.64;64.1
64453;BME280;50813;52.654;6.766;2023-05-02T07:38:34;102405.0;;;9.56;62.53
64453;BME280;50813;52.654;6.766;2023-05-02T07:40:10;102416.00000000001;;;9.55;64.28
64453;BME280;50813;52.654;6.766;2023-05-02T07:43:22;102411.99999999999;;;9.61;65.41
64453;BME280;50813;52.654;6.766;2023-05-02T07:44:58;102418.0;;;9.65;65.69
64453;BME280;50813;52.654;6.766;2023-05-02T07:46:34;102417.0;;;9.61;64.27
64453;BME280;50813;52.654;6.766;2023-05-02T07:49:49;102418.0;;;9.66;64.55
64453;BME280;50813;52.654;6.766;2023-05-02T07:51:25;102419.0;;;9.58;63.98
64453;BME280;50813;52.654;6.766;2023-05-02T07:53:01;102425.0;;;9.51;64.27
64453;BME280;50813;52.654;6.766;2023-05-02T07:56:14;102424.0;;;9.75;63.18
64453;BME280;50813;52.654;6.766;2023-05-02T07:57:50;102428.0;;;9.91;64.02
64453;BME280;50813;52.654;6.766;2023-05-02T07:59:26;102433.0;;;10.01;65.05
64453;BME280;50813;52.654;6.766;2023-05-02T08:01:02;102438.00000000001;;;9.73;63.16
64453;BME280;50813;52.654;6.766;2023-05-02T08:04:16;102436.99999999999;;;9.96;64.31
64453;BME280;50813;52.654;6.766;2023-05-02T08:05:53;102441.00000000001;;;9.69;64.72
64453;BME280;50813;52.654;6.766;2023-05-02T08:07:30;102442.0;;;9.89;63.3
64453;BME280;50813;52.654;6.766;2023-05-02T08:10:43;102442.0;;;10.01;63.62
64453;BME280;50813;52.654;6.766;2023-05-02T08:12:20;102443.0;;;10.14;64.08
64453;BME280;50813;52.654;6.766;2023-05-02T08:13:56;102440.00000000001;;;10.13;61.76
64453;BME280;50813;52.654;6.766;2023-05-02T08:17:08;102443.0;;;10.23;61.17
64453;BME280;50813;52.654;6.766;2023-05-02T08:18:44;102443.0;;;10.29;60.25
64453;BME280;50813;52.654;6.766;2023-05-02T08:20:20;102446.0;;;10.19;60.38
64453;BME280;50813;52.654;6.766;2023-05-02T08:21:58;102444.0;;;10.22;60.27
64453;BME280;50813;52.654;6.766;2023-05-02T08:25:09;102452.0;;;10.09;63.92
64453;BME280;50813;52.654;6.766;2023-05-02T08:26:45;102456.0;;;10.0;60.55
64453;BME280;50813;52.654;6.766;2023-05-02T08:28:21;102467.0;;;9.92;59.21
64453;BME280;50813;52.654;6.766;2023-05-02T08:31:33;102470.0;;;10.0;60.06
64453;BME280;50813;52.654;6.766;2023-05-02T08:33:10;102473.0;;;10.01;61.1
64453;BME280;50813;52.654;6.766;2023-05-02T08:34:46;102473.0;;;9.85;60.83
64453;BME280;50813;52.654;6.766;2023-05-02T08:37:59;102474.0;;;9.65;57.62
64453;BME280;50813;52.654;6.766;2023-05-02T08:39:35;102480.0;;;9.98;58.63
64453;BME280;50813;52.654;6.766;2023-05-02T08:41:13;102479.0;;;9.91;57.56
64453;BME280;50813;52.654;6.766;2023-05-02T08:42:50;102480.0;;;9.88;56.44
64453;BME280;50813;52.654;6.766;2023-05-02T08:46:04;102481.0;;;9.71;59.55
64453;BME280;50813;52.654;6.766;2023-05-02T08:47:41;102489.00000000001;;;9.93;57.14
64453;BME280;50813;52.654;6.766;2023-05-02T08:49:18;102489.00000000001;;;9.9;56.5
64453;BME280;50813;52.654;6.766;2023-05-02T08:52:35;102494.0;;;9.97;56.4
64453;BME280;50813;52.654;6.766;2023-05-02T08:54:15;102504.0;;;9.83;55.37
64453;BME280;50813;52.654;6.766;2023-05-02T08:55:52;102506.0;;;9.85;57.0
64453;BME280;50813;52.654;6.766;2023-05-02T08:57:29;102503.0;;;10.09;56.62
64453;BME280;50813;52.654;6.766;2023-05-02T09:00:41;102507.0;;;10.07;57.65
64453;BME280;50813;52.654;6.766;2023-05-02T09:02:28;102506.0;;;10.28;58.27
64453;BME280;50813;52.654;6.766;2023-05-02T09:04:31;102505.0;;;10.56;58.58
64453;BME280;50813;52.654;6.766;2023-05-02T09:06:11;102502.0;;;10.62;54.63
64453;BME280;50813;52.654;6.766;2023-05-02T09:09:26;102498.0;;;10.78;54.24
64453;BME280;50813;52.654;6.766;2023-05-02T09:11:03;102500.0;;;10.81;53.7
64453;BME280;50813;52.654;6.766;2023-05-02T09:12:39;102508.99999999999;;;10.48;52.35
64453;BME280;50813;52.654;6.766;2023-05-02T09:14:16;102513.00000000001;;;10.29;52.64
64453;BME280;50813;52.654;6.766;2023-05-02T09:17:38;102508.0;;;10.53;54.21
64453;BME280;50813;52.654;6.766;2023-05-02T09:19:22;102511.99999999999;;;10.3;52.41
64453;BME280;50813;52.654;6.766;2023-05-02T09:21:03;102516.00000000001;;;10.34;52.94
64453;BME280;50813;52.654;6.766;2023-05-02T09:22:48;102509.99999999999;;;10.88;52.55
64453;BME280;50813;52.654;6.766;2023-05-02T09:26:01;102515.00000000001;;;10.99;50.19
64453;BME280;50813;52.654;6.766;2023-05-02T09:27:54;102517.0;;;11.16;52.68
64453;BME280;50813;52.654;6.766;2023-05-02T09:29:32;102516.00000000001;;;10.78;49.18
64453;BME280;50813;52.654;6.766;2023-05-02T09:31:10;102519.0;;;10.85;50.65
64453;BME280;50813;52.654;6.766;2023-05-02T09:34:25;102526.0;;;11.22;51.77
64453;BME280;50813;52.654;6.766;2023-05-02T09:36:02;102530.0;;;11.52;51.25
64453;BME280;50813;52.654;6.766;2023-05-02T09:37:39;102523.0;;;11.97;49.6
64453;BME280;50813;52.654;6.766;2023-05-02T09:40:56;102531.0;;;11.97;49.3
64453;BME280;50813;52.654;6.766;2023-05-02T09:42:32;102541.00000000001;;;11.94;47.31
64453;BME280;50813;52.654;6.766;2023-05-02T09:44:09;102543.0;;;11.79;47.54
64453;BME280;50813;52.654;6.766;2023-05-02T09:45:55;102546.0;;;11.83;47.41
64453;BME280;50813;52.654;6.766;2023-05-02T09:49:08;102549.0;;;11.51;48.64
64453;BME280;50813;52.654;6.766;2023-05-02T09:50:44;102554.0;;;11.43;47.22
64453;BME280;50813;52.654;6.766;2023-05-02T09:52:20;102552.0;;;11.65;50.21
64453;BME280;50813;52.654;6.766;2023-05-02T09:53:56;102558.99999999999;;;11.63;50.46
64453;BME280;50813;52.654;6.766;2023-05-02T09:57:09;102559.99999999999;;;11.83;50.7
64453;BME280;50813;52.654;6.766;2023-05-02T09:58:45;102558.99999999999;;;11.86;48.51
64453;BME280;50813;52.654;6.766;2023-05-02T10:00:21;102563.00000000001;;;12.06;51.26
64453;BME280;50813;52.654;6.766;2023-05-02T10:03:36;102553.0;;;11.95;48.48
64453;BME280;50813;52.654;6.766;2023-05-02T10:05:16;102565.00000000001;;;11.79;52.22
64453;BME280;50813;52.654;6.766;2023-05-02T10:06:54;102563.00000000001;;;11.61;49.38
64453;BME280;50813;52.654;6.766;2023-05-02T10:10:10;102567.0;;;11.67;49.81
64453;BME280;50813;52.654;6.766;2023-05-02T10:11:51;102571.0;;;11.74;50.51
64453;BME280;50813;52.654;6.766;2023-05-02T10:13:30;102574.0;;;11.96;49.6
64453;BME280;50813;52.654;6.766;2023-05-02T10:15:09;102572.0;;;11.99;49.94
64453;BME280;50813;52.654;6.766;2023-05-02T10:18:41;102575.0;;;12.01;49.89
64453;BME280;50813;52.654;6.766;2023-05-02T10:20:21;102576.0;;;11.97;50.43
64453;BME280;50813;52.654;6.766;2023-05-02T10:22:01;102576.0;;;11.88;49.69
64453;BME280;50813;52.654;6.766;2023-05-02T10:23:41;102579.0;;;11.85;51.15
64453;BME280;50813;52.654;6.766;2023-05-02T10:25:18;102580.0;;;12.04;50.77
64453;BME280;50813;52.654;6.766;2023-05-02T10:28:32;102583.0;;;11.62;50.71
64453;BME280;50813;52.654;6.766;2023-05-02T10:30:09;102583.99999999999;;;11.79;51.98
64453;BME280;50813;52.654;6.766;2023-05-02T10:31:48;102584.99999999999;;;11.93;52.94
64453;BME280;50813;52.654;6.766;2023-05-02T10:35:03;102582.0;;;11.8;51.22
64453;BME280;50813;52.654;6.766;2023-05-02T10:36:40;102590.00000000001;;;11.83;50.79
64453;BME280;50813;52.654;6.766;2023-05-02T10:38:19;102583.99999999999;;;11.7;49.92
64453;BME280;50813;52.654;6.766;2023-05-02T10:41:33;102583.99999999999;;;11.78;52.0
64453;BME280;50813;52.654;6.766;2023-05-02T10:43:13;102591.00000000001;;;11.96;51.36
64453;BME280;50813;52.654;6.766;2023-05-02T10:44:50;102592.0;;;12.11;51.8
64453;BME280;50813;52.654;6.766;2023-05-02T10:46:30;102586.99999999999;;;12.63;51.94
64453;BME280;50813;52.654;6.766;2023-05-02T10:49:55;102582.0;;;12.71;51.7
64453;BME280;50813;52.654;6.766;2023-05-02T10:51:32;102579.0;;;13.12;51.3
64453;BME280;50813;52.654;6.766;2023-05-02T10:53:21;102576.0;;;12.88;49.4
64453;BME280;50813;52.654;6.766;2023-05-02T10:55:16;102577.0;;;12.97;48.37
64453;BME280;50813;52.654;6.766;2023-05-02T10:57:01;102583.99999999999;;;12.97;48.58
64453;BME280;50813;52.654;6.766;2023-05-02T11:00:20;102583.99999999999;;;12.99;47.23
64453;BME280;50813;52.654;6.766;2023-05-02T11:01:57;102577.0;;;13.25;47.49
64453;BME280;50813;52.654;6.766;2023-05-02T11:04:07;102579.0;;;13.25;48.87